createdAt,value
2022-09-06T00:02:22.067Z,699.08
2022-09-06T00:04:50.608Z,695.83
2022-09-06T00:07:18.582Z,697.28
2022-09-06T00:09:46.830Z,686.88
2022-09-06T00:12:16.216Z,704.70
2022-09-06T00:14:44.218Z,688.10
2022-09-06T00:17:12.597Z,685.70
2022-09-06T00:19:40.628Z,680.33
2022-09-06T00:22:08.520Z,688.00
2022-09-06T00:24:37.259Z,690.30
2022-09-06T00:27:05.693Z,681.75
2022-09-06T00:29:35.361Z,683.47
2022-09-06T00:32:03.874Z,676.03
2022-09-06T00:34:32.078Z,677.70
2022-09-06T00:37:00.126Z,694.03
2022-09-06T00:39:28.580Z,698.35
2022-09-06T00:41:56.967Z,691.40
2022-09-06T00:44:24.940Z,693.65
2022-09-06T00:46:55.452Z,692.80
2022-09-06T00:49:29.316Z,676.45
2022-09-06T00:52:02.789Z,693.67
2022-09-06T00:54:31.194Z,686.10
2022-09-06T00:56:59.449Z,685.50
2022-09-06T00:59:28.438Z,700.45
2022-09-06T01:01:58.202Z,690.70
2022-09-06T01:04:26.770Z,700.47
2022-09-06T01:07:04.254Z,693.78
2022-09-06T01:09:47.714Z,694.25
2022-09-06T01:12:28.342Z,687.38
2022-09-06T01:15:06.974Z,686.97
2022-09-06T01:17:45.045Z,693.97
2022-09-06T01:20:30.292Z,702.78
2022-09-06T01:23:18.421Z,694.42
2022-09-06T01:25:54.777Z,687.53
2022-09-06T01:28:42.090Z,692.72
2022-09-06T01:31:25.663Z,682.78
2022-09-06T01:34:09.062Z,690.67
2022-09-06T01:36:54.403Z,683.15
2022-09-06T01:39:32.628Z,682.17
2022-09-06T01:42:05.904Z,664.15
2022-09-06T01:44:36.291Z,685.88
2022-09-06T01:47:12.261Z,686.50
2022-09-06T01:49:48.197Z,677.95
2022-09-06T01:52:19.480Z,688.00
2022-09-06T01:54:56.758Z,681.20
2022-09-06T01:57:33.984Z,677.05
2022-09-06T02:00:09.243Z,668.85
2022-09-06T02:02:47.899Z,658.60
2022-09-06T02:05:21.660Z,652.50
2022-09-06T02:07:50.775Z,662.70
2022-09-06T02:10:24.857Z,649.17
2022-09-06T02:12:55.250Z,655.10
2022-09-06T02:15:27.438Z,650.22
2022-09-06T02:17:58.470Z,665.70
2022-09-06T02:20:28.697Z,674.80
2022-09-06T02:22:57.775Z,679.40
2022-09-06T02:25:28.141Z,683.95
2022-09-06T02:27:56.667Z,688.85
2022-09-06T02:30:26.477Z,677.40
2022-09-06T02:32:59.134Z,680.88
2022-09-06T02:35:27.466Z,695.38
2022-09-06T02:37:56.397Z,698.58
2022-09-06T02:40:24.628Z,678.58
2022-09-06T02:42:54.049Z,673.70
2022-09-06T02:45:22.044Z,685.83
2022-09-06T02:47:51.352Z,679.55
2022-09-06T02:50:19.243Z,681.88
2022-09-06T02:52:47.191Z,673.50
2022-09-06T02:55:15.562Z,654.05
2022-09-06T02:57:43.864Z,671.67
2022-09-06T03:00:12.852Z,667.05
2022-09-06T03:02:40.840Z,655.42
2022-09-06T03:05:11.173Z,666.45
2022-09-06T03:07:39.190Z,650.78
2022-09-06T03:10:07.979Z,649.60
2022-09-06T03:12:35.906Z,624.42
2022-09-06T03:15:04.246Z,606.38
2022-09-06T03:17:32.362Z,619.97
2022-09-06T03:20:00.784Z,650.70
2022-09-06T03:22:30.042Z,657.72
2022-09-06T03:24:58.241Z,668.65
2022-09-06T03:27:26.171Z,679.17
2022-09-06T03:29:54.187Z,656.58
2022-09-06T03:32:22.417Z,670.58
2022-09-06T03:34:50.406Z,664.08
2022-09-06T03:37:19.476Z,665.40
2022-09-06T03:39:48.808Z,663.28
2022-09-06T03:42:16.856Z,672.13
2022-09-06T03:44:44.783Z,682.88
2022-09-06T03:47:15.561Z,685.53
2022-09-06T03:49:46.858Z,681.45
2022-09-06T03:52:15.333Z,675.63
2022-09-06T03:54:43.202Z,685.85
2022-09-06T03:57:12.488Z,696.22
2022-09-06T03:59:40.444Z,666.88
2022-09-06T04:02:08.502Z,657.80
2022-09-06T04:04:36.632Z,660.63
2022-09-06T04:07:04.620Z,666.58
2022-09-06T04:09:32.643Z,674.30
2022-09-06T04:12:00.786Z,671.38
2022-09-06T04:14:30.159Z,650.05
2022-09-06T04:16:58.394Z,667.75
2022-09-06T04:19:26.424Z,670.42
2022-09-06T04:21:54.384Z,672.42
2022-09-06T04:24:22.407Z,663.03
2022-09-06T04:26:50.370Z,679.92
2022-09-06T04:29:18.329Z,671.47
2022-09-06T04:31:47.796Z,683.38
2022-09-06T04:34:16.449Z,674.00
2022-09-06T04:36:48.135Z,682.20
2022-09-06T04:39:16.449Z,669.53
2022-09-06T04:41:44.380Z,677.95
2022-09-06T04:44:12.355Z,682.53
2022-09-06T04:46:42.758Z,673.40
2022-09-06T04:49:12.084Z,696.80
2022-09-06T04:51:40.315Z,686.75
2022-09-06T04:54:08.278Z,690.22
2022-09-06T04:56:36.630Z,691.83
2022-09-06T04:59:04.744Z,696.70
2022-09-06T05:01:32.923Z,695.72
2022-09-06T05:04:01.255Z,692.25
2022-09-06T05:06:32.118Z,687.00
2022-09-06T05:09:00.102Z,685.03
2022-09-06T05:11:28.136Z,685.15
2022-09-06T05:13:56.110Z,693.50
2022-09-06T05:16:24.185Z,697.88
2022-09-06T05:18:52.218Z,679.20
2022-09-06T05:21:20.217Z,692.63
2022-09-06T05:23:49.825Z,689.92
2022-09-06T05:26:17.892Z,689.00
2022-09-06T05:28:45.932Z,683.00
2022-09-06T05:31:28.497Z,681.50
2022-09-06T05:33:57.646Z,685.97
2022-09-06T05:36:26.192Z,675.80
2022-09-06T05:38:56.867Z,674.80
2022-09-06T05:41:25.574Z,668.55
2022-09-06T05:43:53.842Z,672.50
2022-09-06T05:46:22.098Z,677.97
2022-09-06T05:48:54.494Z,680.58
2022-09-06T05:51:22.459Z,678.75
2022-09-06T05:53:50.474Z,688.88
2022-09-06T05:56:22.599Z,655.25
2022-09-06T05:58:54.335Z,674.47
2022-09-06T06:01:23.905Z,677.90
2022-09-06T06:03:52.857Z,660.28
2022-09-06T06:06:21.785Z,677.47
2022-09-06T06:08:50.031Z,678.00
2022-09-06T06:11:19.535Z,683.45
2022-09-06T06:13:47.538Z,671.60
2022-09-06T06:16:16.922Z,676.20
2022-09-06T06:18:51.278Z,676.65
2022-09-06T06:21:22.229Z,659.90
2022-09-06T06:23:52.237Z,668.47
2022-09-06T06:26:21.796Z,661.78
2022-09-06T06:28:49.962Z,638.00
2022-09-06T06:31:19.416Z,666.88
2022-09-06T06:33:47.457Z,637.97
2022-09-06T06:36:23.334Z,637.03
2022-09-06T06:38:54.515Z,637.15
2022-09-06T06:41:25.337Z,640.55
2022-09-06T06:43:54.112Z,658.70
2022-09-06T06:46:22.980Z,663.28
2022-09-06T06:48:54.729Z,671.35
2022-09-06T06:51:25.844Z,672.70
2022-09-06T06:53:56.311Z,678.85
2022-09-06T06:56:27.367Z,681.80
2022-09-06T06:58:57.526Z,683.45
2022-09-06T07:01:27.034Z,690.67
2022-09-06T07:03:55.501Z,691.47
2022-09-06T07:09:13.773Z,690.85
2022-09-06T07:11:44.517Z,692.58
2022-09-06T07:14:14.584Z,694.90
2022-09-06T07:16:42.719Z,695.47
2022-09-06T07:22:02.887Z,716.80
2022-09-06T07:24:36.222Z,688.33
2022-09-06T07:29:53.577Z,562.05
2022-09-06T07:32:21.546Z,618.13
2022-09-06T07:34:49.458Z,619.13
2022-09-06T07:37:17.486Z,603.53
2022-09-06T07:39:45.703Z,603.35
2022-09-06T07:42:16.288Z,614.90
2022-09-06T07:44:44.610Z,637.92
2022-09-06T07:53:14.844Z,629.65
2022-09-06T07:55:43.672Z,633.67
2022-09-06T07:58:13.046Z,644.28
2022-09-06T08:00:41.624Z,651.30
2022-09-06T08:03:09.833Z,658.00
2022-09-06T08:11:17.918Z,673.42
2022-09-06T08:13:50.622Z,669.72
2022-09-06T08:16:20.140Z,674.35
2022-09-06T08:18:51.899Z,675.13
2022-09-06T08:21:20.324Z,671.67
2022-09-06T08:23:49.744Z,688.10
2022-09-06T08:26:21.071Z,683.20
2022-09-06T08:28:54.381Z,686.55
2022-09-06T08:31:22.451Z,683.60
2022-09-06T08:33:50.644Z,682.72
2022-09-06T08:36:19.013Z,688.40
2022-09-06T08:38:46.958Z,690.22
2022-09-06T08:41:24.294Z,686.05
2022-09-06T08:46:49.426Z,689.00
2022-09-06T08:49:17.737Z,690.42
2022-09-06T08:52:13.417Z,686.85
2022-09-06T08:54:42.557Z,693.58
2022-09-06T08:57:15.367Z,689.60
2022-09-06T08:59:44.791Z,688.60
2022-09-06T09:02:14.974Z,691.45
2022-09-06T09:04:45.946Z,691.17
2022-09-06T09:07:31.039Z,691.70
2022-09-06T09:09:59.811Z,695.83
2022-09-06T09:12:29.357Z,695.88
2022-09-06T09:15:03.442Z,697.15
2022-09-06T09:17:32.769Z,691.10
2022-09-06T09:20:00.678Z,704.10
2022-09-06T09:22:29.327Z,691.10
2022-09-06T09:24:59.586Z,694.70
2022-09-06T09:27:29.155Z,698.65
2022-09-06T09:32:51.953Z,696.40
2022-09-06T09:35:27.980Z,683.75
2022-09-06T09:38:09.501Z,694.55
2022-09-06T09:40:41.935Z,700.40
2022-09-06T09:43:15.518Z,708.28
2022-09-06T09:45:45.264Z,697.35
2022-09-06T09:48:22.431Z,699.40
2022-09-06T09:50:50.354Z,705.20
2022-09-06T09:53:21.069Z,702.25
2022-09-06T09:55:49.501Z,706.13
2022-09-06T09:58:21.977Z,696.50
2022-09-06T10:01:10.685Z,699.17
2022-09-06T10:09:19.824Z,711.80
2022-09-06T10:11:55.815Z,703.40
2022-09-06T10:14:28.431Z,689.30
2022-09-06T10:16:58.234Z,695.15
2022-09-06T10:19:39.725Z,694.83
2022-09-06T10:22:20.203Z,697.97
2022-09-06T10:25:08.258Z,697.65
2022-09-06T10:27:42.529Z,698.20
2022-09-06T10:30:14.592Z,703.35
2022-09-06T10:32:48.133Z,705.70
2022-09-06T10:35:23.987Z,711.05
2022-09-06T10:38:13.479Z,705.35
2022-09-06T10:40:48.293Z,703.40
2022-09-06T10:43:19.762Z,711.95
2022-09-06T10:45:55.969Z,707.25
2022-09-06T10:48:28.855Z,709.55
2022-09-06T10:50:59.286Z,713.72
2022-09-06T10:53:42.593Z,703.97
2022-09-06T10:56:12.816Z,703.80
2022-09-06T11:01:42.943Z,701.30
2022-09-06T11:04:20.459Z,696.85
2022-09-06T11:06:52.609Z,698.40
2022-09-06T11:09:26.664Z,699.95
2022-09-06T11:12:00.676Z,691.50
2022-09-06T11:14:28.903Z,706.97
2022-09-06T11:17:00.753Z,698.75
2022-09-06T11:19:33.256Z,697.08
2022-09-06T11:22:29.242Z,697.00
2022-09-06T11:25:31.663Z,703.67
2022-09-06T11:28:01.454Z,691.33
2022-09-06T11:30:30.268Z,698.35
2022-09-06T11:33:11.627Z,698.85
2022-09-06T11:35:42.234Z,693.55
2022-09-06T11:38:22.312Z,701.17
2022-09-06T11:40:56.082Z,697.65
2022-09-06T11:43:46.520Z,703.97
2022-09-06T11:46:48.587Z,699.97
2022-09-06T11:49:40.063Z,696.45
2022-09-06T11:52:41.765Z,696.85
2022-09-06T11:55:13.887Z,697.90
2022-09-06T11:57:42.806Z,694.92
2022-09-06T12:00:20.910Z,695.97
2022-09-06T12:02:49.014Z,699.33
2022-09-06T12:05:37.425Z,709.85
2022-09-06T12:08:33.310Z,709.20
2022-09-06T12:11:18.854Z,703.38
2022-09-06T12:14:06.134Z,696.33
2022-09-06T12:17:26.338Z,700.90
2022-09-06T12:20:06.423Z,698.72
2022-09-06T12:22:54.569Z,696.80
2022-09-06T12:25:52.635Z,696.03
2022-09-06T12:28:46.921Z,696.30
2022-09-06T12:31:38.434Z,699.42
2022-09-06T12:34:13.823Z,695.08
2022-09-06T12:36:55.809Z,692.55
2022-09-06T12:39:24.396Z,698.90
2022-09-06T12:41:55.215Z,698.20
2022-09-06T12:44:30.591Z,689.47
2022-09-06T12:47:04.613Z,685.33
2022-09-06T12:49:32.573Z,695.00
2022-09-06T12:52:12.237Z,697.13
2022-09-06T12:54:46.733Z,702.15
2022-09-06T12:57:18.308Z,701.70
2022-09-06T12:59:53.662Z,693.67
2022-09-06T13:02:26.594Z,692.58
2022-09-06T13:04:58.036Z,692.35
2022-09-06T13:07:27.200Z,697.05
2022-09-06T13:09:56.529Z,697.47
2022-09-06T13:12:27.384Z,704.35
2022-09-06T13:14:58.153Z,702.42
2022-09-06T13:17:28.537Z,711.10
2022-09-06T13:19:58.142Z,704.42
2022-09-06T13:22:44.205Z,702.72
2022-09-06T13:25:20.569Z,704.72
2022-09-06T13:27:51.188Z,703.88
2022-09-06T13:30:38.705Z,704.60
2022-09-06T13:33:07.957Z,710.42
2022-09-06T13:35:37.582Z,704.83
2022-09-06T13:38:33.096Z,705.42
2022-09-06T13:41:17.088Z,706.20
2022-09-06T13:43:47.651Z,712.15
2022-09-06T13:46:17.277Z,700.10
2022-09-06T13:48:45.385Z,703.17
2022-09-06T13:51:13.393Z,703.33
2022-09-06T13:53:41.245Z,703.45
2022-09-06T13:56:09.447Z,696.00
2022-09-06T13:58:37.365Z,690.90
2022-09-06T14:01:08.674Z,705.17
2022-09-06T14:03:39.260Z,696.47
2022-09-06T14:06:08.248Z,694.13
2022-09-06T14:09:02.945Z,703.72
2022-09-06T14:11:25.588Z,698.63
2022-09-06T14:13:53.581Z,703.65
2022-09-06T14:16:21.592Z,705.17
2022-09-06T14:18:51.993Z,704.28
2022-09-06T14:21:19.966Z,699.45
2022-09-06T14:23:51.005Z,692.60
2022-09-06T14:26:21.057Z,689.80
2022-09-06T14:28:49.411Z,689.72
2022-09-06T14:31:18.837Z,692.72
2022-09-06T14:33:46.721Z,699.17
2022-09-06T14:36:17.604Z,701.55
2022-09-06T14:38:46.445Z,704.28
2022-09-06T14:41:15.581Z,709.10
2022-09-06T14:43:44.832Z,702.42
2022-09-06T14:46:14.874Z,704.35
2022-09-06T14:48:43.749Z,692.03
2022-09-06T14:51:13.150Z,696.58
2022-09-06T14:53:43.575Z,704.45
2022-09-06T14:56:12.829Z,704.28
2022-09-06T14:58:41.885Z,702.78
2022-09-06T15:01:13.238Z,704.13
2022-09-06T15:03:42.811Z,703.83
2022-09-06T15:06:11.656Z,701.38
2022-09-06T15:08:39.741Z,696.75
2022-09-06T15:11:12.726Z,702.08
2022-09-06T15:13:43.294Z,705.35
2022-09-06T15:16:12.162Z,721.92
2022-09-06T15:18:40.073Z,699.47
2022-09-06T15:21:11.362Z,701.72
2022-09-06T15:23:39.677Z,713.00
2022-09-06T15:26:09.915Z,692.60
2022-09-06T15:28:39.040Z,716.17
2022-09-06T15:31:08.283Z,701.13
2022-09-06T15:33:37.697Z,697.35
2022-09-06T15:36:07.210Z,699.08
2022-09-06T15:38:36.044Z,703.88
2022-09-06T15:41:08.402Z,716.97
2022-09-06T15:43:41.753Z,703.20
2022-09-06T15:46:10.278Z,713.80
2022-09-06T15:48:42.443Z,703.42
2022-09-06T15:51:10.933Z,705.63
2022-09-06T15:53:38.910Z,709.38
2022-09-06T15:56:07.400Z,712.05
2022-09-06T15:58:35.628Z,699.90
2022-09-06T16:01:07.892Z,697.25
2022-09-06T16:03:40.391Z,703.70
2022-09-06T16:06:26.139Z,707.15
2022-09-06T16:08:59.877Z,701.97
2022-09-06T16:11:28.271Z,693.20
2022-09-06T16:13:56.656Z,697.40
2022-09-06T16:16:26.476Z,703.95
2022-09-06T16:18:54.413Z,704.60
2022-09-06T16:21:25.162Z,698.42
2022-09-06T16:23:57.804Z,700.08
2022-09-06T16:26:27.670Z,699.90
2022-09-06T16:28:56.036Z,697.20
2022-09-06T16:31:26.173Z,698.83
2022-09-06T16:33:54.432Z,699.42
2022-09-06T16:36:23.132Z,699.40
2022-09-06T16:38:51.527Z,697.63
2022-09-06T16:41:21.186Z,695.63
2022-09-06T16:43:50.168Z,698.63
2022-09-06T16:46:18.601Z,696.30
2022-09-06T16:48:53.192Z,690.05
2022-09-06T16:51:22.989Z,697.20
2022-09-06T16:53:51.291Z,701.90
2022-09-06T16:56:20.641Z,703.22
2022-09-06T16:58:51.571Z,700.42
2022-09-06T17:01:19.687Z,687.10
2022-09-06T17:03:48.294Z,696.15
2022-09-06T17:06:17.806Z,699.30
2022-09-06T17:08:46.300Z,703.22
2022-09-06T17:11:16.030Z,691.85
2022-09-06T17:13:45.506Z,687.17
2022-09-06T17:16:31.430Z,697.00
2022-09-06T17:19:01.333Z,692.25
2022-09-06T17:21:31.048Z,690.83
2022-09-06T17:24:04.143Z,699.40
2022-09-06T17:26:33.242Z,695.83
2022-09-06T17:29:01.563Z,688.75
2022-09-06T17:31:30.244Z,678.00
2022-09-06T17:33:59.660Z,686.38
2022-09-06T17:36:30.586Z,682.13
2022-09-06T17:39:07.891Z,683.05
2022-09-06T17:41:37.850Z,688.63
2022-09-06T17:44:06.754Z,680.20
2022-09-06T17:46:34.961Z,684.50
2022-09-06T17:49:04.709Z,680.50
2022-09-06T17:51:32.896Z,675.42
2022-09-06T17:54:01.365Z,683.65
2022-09-06T17:56:31.158Z,695.33
2022-09-06T17:59:00.148Z,684.13
2022-09-06T18:01:30.512Z,673.65
2022-09-06T18:03:59.462Z,682.92
2022-09-06T18:06:29.499Z,672.95
2022-09-06T18:08:59.619Z,688.00
2022-09-06T18:11:29.504Z,665.85
2022-09-06T18:14:00.434Z,689.17
2022-09-06T18:16:29.037Z,688.80
2022-09-06T18:18:58.649Z,693.08
2022-09-06T18:21:27.804Z,684.40
2022-09-06T18:23:55.916Z,690.45
2022-09-06T18:26:24.606Z,693.10
2022-09-06T18:28:54.062Z,690.65
2022-09-06T18:31:25.535Z,682.30
2022-09-06T18:33:55.652Z,684.17
2022-09-06T18:36:31.208Z,676.78
2022-09-06T18:39:02.736Z,678.97
2022-09-06T18:41:48.358Z,682.10
2022-09-06T18:44:19.537Z,686.78
2022-09-06T18:46:48.993Z,680.53
2022-09-06T18:49:17.522Z,677.47
2022-09-06T18:51:46.139Z,677.75
2022-09-06T18:54:14.611Z,686.53
2022-09-06T18:56:44.837Z,682.67
2022-09-06T18:59:15.983Z,694.55
2022-09-06T19:01:44.463Z,685.33
2022-09-06T19:04:14.329Z,684.17
2022-09-06T19:06:43.677Z,694.97
2022-09-06T19:09:14.043Z,678.63
2022-09-06T19:11:52.795Z,697.53
2022-09-06T19:14:22.018Z,685.13
2022-09-06T19:16:51.860Z,699.10
2022-09-06T19:19:23.467Z,696.80
2022-09-06T19:21:56.475Z,699.60
2022-09-06T19:24:28.170Z,688.45
2022-09-06T19:26:56.725Z,679.85
2022-09-06T19:29:25.281Z,670.47
2022-09-06T19:31:54.443Z,680.58
2022-09-06T19:34:24.290Z,693.95
2022-09-06T19:36:55.254Z,690.92
2022-09-06T19:39:23.592Z,688.28
2022-09-06T19:41:54.355Z,689.75
2022-09-06T19:44:22.842Z,685.25
2022-09-06T19:46:51.222Z,684.95
2022-09-06T19:49:20.523Z,687.35
2022-09-06T19:51:51.516Z,688.42
2022-09-06T19:54:19.854Z,678.70
2022-09-06T19:56:48.233Z,681.30
2022-09-06T19:59:17.885Z,678.38
2022-09-06T20:01:47.273Z,669.25
2022-09-06T20:04:16.045Z,677.58
2022-09-06T20:06:45.439Z,661.05
2022-09-06T20:09:15.972Z,646.85
2022-09-06T20:11:44.481Z,652.72
2022-09-06T20:14:13.734Z,669.30
2022-09-06T20:16:43.116Z,685.08
2022-09-06T20:19:13.055Z,678.20
2022-09-06T20:21:41.390Z,685.85
2022-09-06T20:24:09.899Z,681.67
2022-09-06T20:26:40.421Z,664.58
2022-09-06T20:29:08.608Z,654.55
2022-09-06T20:31:37.449Z,653.75
2022-09-06T20:34:06.560Z,660.65
2022-09-06T20:36:34.445Z,666.60
2022-09-06T20:39:02.929Z,670.75
2022-09-06T20:41:31.161Z,665.40
2022-09-06T20:44:01.344Z,665.97
2022-09-06T20:46:31.080Z,670.10
2022-09-06T20:49:02.004Z,672.45
2022-09-06T20:51:30.359Z,674.67
2022-09-06T20:53:59.378Z,679.25
2022-09-06T20:56:28.966Z,670.22
2022-09-06T20:58:59.410Z,684.63
2022-09-06T21:01:30.311Z,677.00
2022-09-06T21:03:59.598Z,685.45
2022-09-06T21:06:28.936Z,662.00
2022-09-06T21:08:57.058Z,674.85
2022-09-06T21:11:25.265Z,680.85
2022-09-06T21:13:55.849Z,687.83
2022-09-06T21:16:25.243Z,693.90
2022-09-06T21:18:58.373Z,676.88
2022-09-06T21:21:26.938Z,681.63
2022-09-06T21:23:55.112Z,668.80
2022-09-06T21:26:23.462Z,668.28
2022-09-06T21:28:51.606Z,672.70
2022-09-06T21:31:22.063Z,674.85
2022-09-06T21:33:52.581Z,674.85
2022-09-06T21:36:23.305Z,676.22
2022-09-06T21:38:53.769Z,665.90
2022-09-06T21:41:21.994Z,681.03
2022-09-06T21:43:53.136Z,679.95
2022-09-06T21:46:22.461Z,666.72
2022-09-06T21:48:51.810Z,682.40
2022-09-06T21:51:24.578Z,685.08
2022-09-06T21:53:53.492Z,695.58
2022-09-06T21:56:23.867Z,676.92
2022-09-06T21:58:52.820Z,680.75
2022-09-06T22:01:20.889Z,676.13
2022-09-06T22:03:48.836Z,685.88
2022-09-06T22:06:19.477Z,666.03
2022-09-06T22:08:49.455Z,676.55
2022-09-06T22:11:19.117Z,651.90
2022-09-06T22:13:47.932Z,660.65
2022-09-06T22:16:17.938Z,665.05
2022-09-06T22:18:46.197Z,671.10
2022-09-06T22:21:18.514Z,681.60
2022-09-06T22:23:52.748Z,673.40
2022-09-06T22:26:21.430Z,669.58
2022-09-06T22:28:49.378Z,673.13
2022-09-06T22:31:17.353Z,687.40
2022-09-06T22:33:45.646Z,671.08
2022-09-06T22:36:13.635Z,667.72
2022-09-06T22:38:41.615Z,658.10
2022-09-06T22:41:11.349Z,673.47
2022-09-06T22:43:39.262Z,677.08
2022-09-06T22:46:08.849Z,681.80
2022-09-06T22:48:37.406Z,676.33
2022-09-06T22:51:06.185Z,690.33
2022-09-06T22:53:36.069Z,685.00
2022-09-06T22:56:05.085Z,686.65
2022-09-06T22:58:34.713Z,683.42
2022-09-06T23:01:08.281Z,672.47
2022-09-06T23:03:36.944Z,677.60
2022-09-06T23:06:05.474Z,673.85
2022-09-06T23:08:33.786Z,666.78
2022-09-06T23:11:05.703Z,658.28
2022-09-06T23:13:35.154Z,662.20
2022-09-06T23:16:04.895Z,668.17
2022-09-06T23:18:33.390Z,661.08
2022-09-06T23:21:05.742Z,658.90
2022-09-06T23:23:33.849Z,661.40
2022-09-06T23:26:06.601Z,673.05
2022-09-06T23:28:36.456Z,653.80
2022-09-06T23:31:05.213Z,648.72
2022-09-06T23:33:35.147Z,664.53
2022-09-06T23:36:03.908Z,670.03
2022-09-06T23:38:33.603Z,658.35
2022-09-06T23:41:01.916Z,657.17
2022-09-06T23:43:30.232Z,660.33
2022-09-06T23:46:00.441Z,661.00
2022-09-06T23:48:28.726Z,668.65
2022-09-06T23:50:56.666Z,671.03
2022-09-06T23:53:24.741Z,670.25
2022-09-06T23:55:52.804Z,657.33
2022-09-06T23:58:21.309Z,652.45
